Time;durP1;ratioP1;P1;durP2;ratioP2;P2;SDS_P1;SDS_P2;PMS_P1;PMS_P2;Temp;Humidity;BMP_temperature;BMP_pressure;BME280_temperature;BME280_humidity;BME280_pressure;Samples;Min_cycle;Max_cycle;Signal;HPM_P1;HPM_P2
2022/01/06 00:01:18;;;;;;;;;40.75;33.75;;;;;4.88;68.79;101678.09;5065162;28;45474;-57
2022/01/06 00:03:43;;;;;;;;;39.75;29.25;;;;;4.88;68.26;101672.88;5068654;27;45315;-59
2022/01/06 00:06:10;;;;;;;;;40.00;32.00;;;;;4.87;68.43;101670.31;5068838;28;46574;-59
2022/01/06 00:08:37;;;;;;;;;49.00;38.50;;;;;4.85;69.09;101665.13;5071061;27;45487;-57
2022/01/06 00:11:08;;;;;;;;;40.75;34.25;;;;;4.83;68.83;101673.88;5067811;27;45516;-58
2022/01/06 00:13:56;;;;;;;;;38.25;31.25;;;;;4.79;68.54;101673.06;5072188;28;45423;-58
2022/01/06 00:24:22;;;;;;;;;33.50;32.75;;;;;4.74;68.64;101678.41;5071176;27;45381;-60
2022/01/06 00:26:48;;;;;;;;;44.00;37.25;;;;;4.73;69.28;101679.25;5071985;27;45653;-58
2022/01/06 00:29:15;;;;;;;;;33.75;30.25;;;;;4.71;68.72;101677.59;5069655;27;45464;-59
2022/01/06 00:31:41;;;;;;;;;42.25;34.50;;;;;4.71;69.64;101680.19;5071486;28;46475;-58
2022/01/06 00:34:10;;;;;;;;;38.25;31.25;;;;;4.69;69.30;101687.19;5073895;27;45472;-58
2022/01/06 00:36:42;;;;;;;;;36.00;32.75;;;;;4.68;69.09;101693.31;5073471;27;45393;-59
2022/01/06 00:39:09;;;;;;;;;34.00;30.75;;;;;4.67;69.08;101684.63;5072037;27;45191;-58
2022/01/06 00:41:36;;;;;;;;;36.50;26.75;;;;;4.67;69.24;101700.28;5071876;27;46245;-58
2022/01/06 00:44:05;;;;;;;;;42.50;30.50;;;;;4.65;69.29;101702.03;5075587;27;45400;-58
2022/01/06 00:46:31;;;;;;;;;33.25;28.00;;;;;4.62;69.55;101699.50;5072974;27;45445;-58
2022/01/06 00:48:57;;;;;;;;;31.25;28.25;;;;;4.61;69.32;101704.75;5071098;27;45501;-57
2022/01/06 00:51:22;;;;;;;;;37.50;32.50;;;;;4.60;68.69;101700.44;5073050;28;45431;-58
2022/01/06 00:53:48;;;;;;;;;33.50;25.00;;;;;4.60;69.25;101705.66;5074965;27;45497;-57
2022/01/06 00:56:14;;;;;;;;;35.00;25.00;;;;;4.59;69.67;101690.88;5071545;27;45410;-59
2022/01/06 00:58:40;;;;;;;;;34.50;28.25;;;;;4.58;69.86;101687.41;5070650;28;45330;-58
2022/01/06 01:01:05;;;;;;;;;27.75;24.50;;;;;4.57;69.67;101692.63;5073367;28;46254;-58
2022/01/06 01:03:31;;;;;;;;;23.75;23.00;;;;;4.55;69.06;101697.91;5069388;27;45334;-58
2022/01/06 01:05:57;;;;;;;;;29.75;26.50;;;;;4.54;69.61;101704.00;5068820;27;45373;-59
2022/01/06 01:08:25;;;;;;;;;34.25;30.25;;;;;4.54;69.46;101701.41;5071434;27;45517;-60
2022/01/06 01:10:53;;;;;;;;;36.25;28.75;;;;;4.53;69.04;101704.03;5071910;27;45376;-58
2022/01/06 01:13:27;;;;;;;;;32.25;28.00;;;;;4.52;69.81;101700.56;5072018;28;45293;-59
2022/01/06 01:15:56;;;;;;;;;38.50;26.25;;;;;4.51;69.55;101693.63;5069993;27;45453;-58
2022/01/06 01:18:22;;;;;;;;;33.75;27.75;;;;;4.48;69.49;101691.94;5073387;27;45571;-58
2022/01/06 01:20:51;;;;;;;;;46.00;29.25;;;;;4.47;69.97;101698.03;5067068;27;46598;-60
2022/01/06 01:23:17;;;;;;;;;41.50;29.50;;;;;4.46;69.66;101703.28;5069791;27;45414;-58
2022/01/06 01:25:44;;;;;;;;;34.00;31.75;;;;;4.45;69.31;101698.97;5070259;27;45442;-59
2022/01/06 01:28:11;;;;;;;;;37.50;29.75;;;;;4.42;69.63;101704.22;5074488;28;45819;-59
2022/01/06 01:30:53;;;;;;;;;37.75;32.25;;;;;4.40;69.67;101700.78;5071144;27;45492;-58
2022/01/06 01:33:19;;;;;;;;;33.25;26.00;;;;;4.39;70.50;101702.53;5073882;28;45451;-58
2022/01/06 01:35:44;;;;;;;;;30.25;25.75;;;;;4.39;70.49;101709.50;5070400;28;45478;-59
2022/01/06 01:38:10;;;;;;;;;34.75;29.00;;;;;4.38;70.21;101706.03;5070213;28;45450;-60
2022/01/06 01:40:36;;;;;;;;;28.25;27.00;;;;;4.37;70.01;101711.28;5072324;28;46180;-58
2022/01/06 01:43:02;;;;;;;;;34.00;29.00;;;;;4.39;70.76;101714.72;5072105;28;45422;-58
2022/01/06 01:45:30;;;;;;;;;39.00;28.25;;;;;4.39;70.33;101704.28;5071337;28;45283;-58
2022/01/06 01:47:58;;;;;;;;;29.75;27.25;;;;;4.40;70.01;101721.66;5066598;28;45838;-60
2022/01/06 01:50:24;;;;;;;;;30.75;26.25;;;;;4.38;70.07;101719.09;5073531;28;45488;-59
2022/01/06 01:52:56;;;;;;;;;38.25;28.00;;;;;4.37;70.26;101706.94;5062230;28;45677;-60
2022/01/06 01:55:27;;;;;;;;;36.00;32.75;;;;;4.36;70.06;101720.88;5072888;28;45247;-59
2022/01/06 01:57:55;;;;;;;;;31.75;28.00;;;;;4.35;70.19;101718.28;5065439;27;45623;-60
2022/01/06 02:00:26;;;;;;;;;8.00;5.25;;;;;4.35;69.96;101726.97;5063446;28;45554;-59
2022/01/06 02:02:52;;;;;;;;;43.25;27.50;;;;;4.36;70.35;101722.63;5073224;28;45423;-59
2022/01/06 02:05:25;;;;;;;;;36.50;24.50;;;;;4.34;70.35;101726.97;5072504;28;45303;-59
2022/01/06 02:07:52;;;;;;;;;27.00;20.50;;;;;4.33;70.55;101722.66;5068039;28;45363;-59
2022/01/06 02:10:20;;;;;;;;;34.75;27.50;;;;;4.33;70.06;101727.88;5071349;28;45802;-60
2022/01/06 02:12:48;;;;;;;;;32.00;28.25;;;;;4.31;69.93;101729.66;5074709;28;45371;-60
2022/01/06 02:15:14;;;;;;;;;29.75;27.25;;;;;4.29;70.37;101729.69;5071448;27;45450;-59
2022/01/06 02:17:41;;;;;;;;;27.75;25.00;;;;;4.29;70.68;101731.44;5080316;27;45473;-58
2022/01/06 02:20:12;;;;;;;;;32.75;26.75;;;;;4.29;70.93;101736.66;5073674;27;45481;-58
2022/01/06 02:22:38;;;;;;;;;30.50;24.25;;;;;4.26;70.70;101750.59;5077140;28;45330;-58
2022/01/06 02:25:19;;;;;;;;;33.50;26.50;;;;;4.25;70.87;101746.25;5081744;27;45325;-57
2022/01/06 02:27:50;;;;;;;;;27.75;23.75;;;;;4.24;71.07;101731.50;5081439;27;45502;-58
2022/01/06 02:30:16;;;;;;;;;35.25;24.75;;;;;4.27;71.02;101738.44;5081245;28;46073;-58
2022/01/06 02:32:42;;;;;;;;;28.00;24.75;;;;;4.28;70.13;101729.72;5081219;27;45425;-58
2022/01/06 02:35:11;;;;;;;;;38.00;28.50;;;;;4.26;69.93;101732.31;5081466;27;45322;-57
2022/01/06 02:37:37;;;;;;;;;35.00;28.75;;;;;4.23;70.18;101734.13;5081181;27;45184;-58
2022/01/06 02:40:07;;;;;;;;;31.50;25.25;;;;;4.21;70.64;101739.38;5074847;28;46406;-56
2022/01/06 02:42:34;;;;;;;;;26.25;23.75;;;;;4.23;70.85;101731.53;5068370;28;45839;-57
2022/01/06 02:44:59;;;;;;;;;29.00;29.00;;;;;4.21;70.91;101728.97;5069689;28;45407;-56
2022/01/06 02:47:25;;;;;;;;;32.75;25.25;;;;;4.22;70.56;101737.63;5070582;28;45393;-56
2022/01/06 02:49:50;;;;;;;;;24.00;18.25;;;;;4.22;70.79;101738.50;5067095;28;45616;-57
2022/01/06 02:52:16;;;;;;;;;28.50;23.00;;;;;4.24;70.20;101741.94;5073952;28;45585;-57
2022/01/06 02:54:41;;;;;;;;;41.25;31.50;;;;;4.27;70.52;101739.28;5066903;27;45338;-57
2022/01/06 02:57:08;;;;;;;;;46.50;30.25;;;;;4.29;70.78;101739.25;5073166;28;45434;-56
2022/01/06 02:59:33;;;;;;;;;28.25;27.75;;;;;4.33;70.41;101740.91;5067263;27;46344;-57
2022/01/06 03:01:59;;;;;;;;;31.00;26.25;;;;;4.37;71.00;101753.03;5061003;28;45438;-57
2022/01/06 03:04:24;;;;;;;;;36.75;30.25;;;;;4.43;70.89;101747.72;5060948;28;45257;-57
2022/01/06 03:06:50;;;;;;;;;40.50;35.25;;;;;4.47;70.43;101745.00;5061034;28;45315;-57
2022/01/06 03:09:24;;;;;;;;;67.67;50.00;;;;;4.51;69.94;101758.00;5060729;28;46002;-57
2022/01/06 03:11:51;;;;;;;;;59.50;47.75;;;;;4.55;70.27;101763.13;5060964;28;45414;-57
2022/01/06 03:14:17;;;;;;;;;56.50;42.25;;;;;4.55;69.63;101765.72;5060656;28;45374;-57
2022/01/06 03:16:42;;;;;;;;;73.67;50.33;;;;;4.53;70.45;101777.94;5080892;27;45590;-57
2022/01/06 03:19:08;;;;;;;;;69.33;48.33;;;;;4.52;70.55;101775.38;5060512;28;46096;-57
2022/01/06 03:21:33;;;;;;;;;59.75;48.75;;;;;4.54;70.64;101765.75;5083837;27;45377;-57
2022/01/06 03:23:58;;;;;;;;;55.25;43.75;;;;;4.57;70.24;101768.31;5084135;27;45374;-57
2022/01/06 03:26:24;;;;;;;;;55.50;44.75;;;;;4.61;69.99;101759.56;5061629;28;45295;-57
2022/01/06 03:28:50;;;;;;;;;48.50;41.25;;;;;4.62;69.91;101769.97;5067770;27;46383;-57
2022/01/06 03:31:15;;;;;;;;;47.75;40.75;;;;;4.61;70.15;101767.38;5060678;28;45416;-57
2022/01/06 03:33:41;;;;;;;;;44.25;38.75;;;;;4.59;69.83;101770.03;5060421;28;45236;-58
2022/01/06 03:36:06;;;;;;;;;47.50;37.75;;;;;4.58;70.64;101773.53;5060937;28;45257;-57
2022/01/06 03:38:31;;;;;;;;;41.50;39.00;;;;;4.59;69.83;101774.38;5060512;28;45986;-57
2022/01/06 03:40:57;;;;;;;;;29.75;28.50;;;;;4.60;69.82;101769.13;5060820;28;45330;-57
2022/01/06 03:43:22;;;;;;;;;34.00;31.00;;;;;4.64;69.50;101775.16;5060611;28;45348;-57
2022/01/06 03:45:48;;;;;;;;;41.50;33.25;;;;;4.64;69.72;101773.38;5060664;28;45248;-57
2022/01/06 03:48:13;;;;;;;;;36.50;26.25;;;;;4.62;69.87;101767.34;5060329;28;46674;-57
2022/01/06 03:50:39;;;;;;;;;37.25;28.50;;;;;4.61;69.47;101777.81;5060210;28;45347;-57
2022/01/06 03:53:04;;;;;;;;;30.25;23.50;;;;;4.56;69.67;101775.28;5060968;28;45469;-57
2022/01/06 03:55:30;;;;;;;;;30.25;26.25;;;;;4.53;69.29;101774.50;5069755;28;45290;-57
2022/01/06 03:57:55;;;;;;;;;30.00;25.50;;;;;4.53;69.70;101779.72;5070472;27;45601;-57
2022/01/06 04:00:22;;;;;;;;;21.75;18.25;;;;;4.50;70.37;101780.59;5069226;28;45358;-57
2022/01/06 04:02:48;;;;;;;;;27.00;21.50;;;;;4.52;69.72;101776.25;5070119;27;45532;-57
2022/01/06 04:05:14;;;;;;;;;30.25;24.25;;;;;4.55;69.93;101770.09;5063968;28;45446;-58
2022/01/06 04:07:41;;;;;;;;;29.25;24.75;;;;;4.58;70.09;101773.53;5063669;28;45871;-58
2022/01/06 04:10:08;;;;;;;;;29.00;25.50;;;;;4.60;69.39;101773.50;5064172;28;45275;-57
2022/01/06 04:12:35;;;;;;;;;26.50;22.75;;;;;4.62;69.78;101779.53;5063906;28;45384;-57
2022/01/06 04:15:01;;;;;;;;;28.75;24.75;;;;;4.63;69.93;101776.91;5069122;28;45497;-57
2022/01/06 04:17:27;;;;;;;;;30.00;24.25;;;;;4.63;69.75;101774.28;5084110;28;46189;-57
2022/01/06 04:19:52;;;;;;;;;25.50;20.75;;;;;4.64;69.93;101777.75;5083714;28;45384;-57
2022/01/06 04:22:18;;;;;;;;;35.00;21.00;;;;;4.62;69.88;101774.31;5084123;28;45386;-57
2022/01/06 04:24:45;;;;;;;;;23.75;18.00;;;;;4.58;70.09;101773.53;5083437;28;45362;-57
2022/01/06 04:27:10;;;;;;;;;21.25;16.00;;;;;4.58;70.18;101773.53;5082971;28;45281;-57
2022/01/06 04:29:36;;;;;;;;;20.50;18.75;;;;;4.57;70.49;101782.22;5078682;28;45363;-58
2022/01/06 04:32:02;;;;;;;;;22.75;17.00;;;;;4.59;69.53;101777.00;5075531;28;45424;-57
2022/01/06 04:34:28;;;;;;;;;15.75;14.25;;;;;4.57;70.30;101778.75;5083709;28;45226;-58
2022/01/06 04:36:56;;;;;;;;;23.75;17.50;;;;;4.54;69.95;101777.06;5083640;28;45244;-57
2022/01/06 04:39:21;;;;;;;;;19.25;16.75;;;;;4.55;69.29;101794.44;5083583;27;45444;-57
2022/01/06 04:41:47;;;;;;;;;23.00;14.25;;;;;4.53;69.30;101796.22;5083901;28;45358;-57
2022/01/06 04:44:12;;;;;;;;;29.25;19.50;;;;;4.52;69.98;101785.81;5083237;28;45408;-57
2022/01/06 04:46:38;;;;;;;;;20.50;16.25;;;;;4.52;69.51;101788.44;5082924;28;45513;-57
2022/01/06 04:49:04;;;;;;;;;20.75;18.25;;;;;4.49;69.39;101787.56;5083100;28;45306;-57
2022/01/06 04:51:30;;;;;;;;;25.50;20.25;;;;;4.47;70.47;101780.66;5083522;28;45278;-57
2022/01/06 04:53:56;;;;;;;;;27.25;19.50;;;;;4.46;70.09;101779.81;5083779;28;45248;-57
2022/01/06 04:56:21;;;;;;;;;27.25;20.50;;;;;4.47;70.44;101781.53;5072096;28;45987;-57
2022/01/06 04:58:48;;;;;;;;;22.75;16.25;;;;;4.47;70.50;101778.06;5063013;28;45417;-57
2022/01/06 05:01:14;;;;;;;;;28.50;18.75;;;;;4.47;69.60;101781.53;5063372;28;45302;-57
2022/01/06 05:03:39;;;;;;;;;24.25;22.75;;;;;4.46;70.55;101789.38;5062481;28;45397;-57
2022/01/06 05:06:05;;;;;;;;;17.00;17.00;;;;;4.45;70.15;101790.28;5062790;28;45431;-57
2022/01/06 05:08:30;;;;;;;;;19.50;19.00;;;;;4.44;69.88;101799.00;5062898;28;45433;-57
2022/01/06 05:10:56;;;;;;;;;24.75;19.50;;;;;4.45;69.37;101798.97;5063063;28;45315;-57
2022/01/06 05:13:21;;;;;;;;;20.75;20.00;;;;;4.45;69.78;101803.31;5062932;28;45290;-57
2022/01/06 05:15:47;;;;;;;;;24.50;20.00;;;;;4.48;70.49;101805.84;5074225;28;45530;-57
2022/01/06 05:18:12;;;;;;;;;28.50;20.00;;;;;4.49;70.31;101804.97;5082714;28;45349;-57
2022/01/06 05:20:42;;;;;;;;;21.50;20.00;;;;;4.53;69.86;101808.41;5083008;28;45320;-57
2022/01/06 05:23:08;;;;;;;;;26.75;22.50;;;;;4.53;69.24;101814.47;5082931;28;46355;-58
2022/01/06 05:25:34;;;;;;;;;21.00;17.75;;;;;4.55;69.72;101822.28;5082821;28;46404;-57
2022/01/06 05:27:59;;;;;;;;;21.25;20.25;;;;;4.54;69.78;101817.94;5077128;28;45330;-57
2022/01/06 05:30:25;;;;;;;;;25.25;18.00;;;;;4.53;69.70;101824.06;5062635;28;45407;-57
2022/01/06 05:32:51;;;;;;;;;32.00;19.75;;;;;4.47;70.25;101814.59;5062537;28;45311;-57
2022/01/06 05:35:17;;;;;;;;;33.50;24.00;;;;;4.45;70.16;101821.56;5062079;28;45434;-57
2022/01/06 05:37:43;;;;;;;;;24.75;19.50;;;;;4.41;70.20;101820.75;5062348;28;45348;-57
2022/01/06 05:40:09;;;;;;;;;21.25;19.50;;;;;4.37;69.45;101818.25;5062743;28;45327;-57
2022/01/06 05:42:34;;;;;;;;;28.75;19.50;;;;;4.34;69.88;101820.88;5062405;28;45212;-57
2022/01/06 05:45:00;;;;;;;;;16.25;16.25;;;;;4.30;70.31;101827.91;5062189;28;45909;-57
2022/01/06 05:47:25;;;;;;;;;23.00;20.25;;;;;4.29;70.01;101833.16;5061956;28;45340;-57
2022/01/06 05:49:51;;;;;;;;;22.75;19.50;;;;;4.26;70.18;101828.81;5072510;28;45332;-57
2022/01/06 05:52:17;;;;;;;;;21.00;20.00;;;;;4.22;70.67;101832.38;5064191;28;45327;-57
2022/01/06 05:54:43;;;;;;;;;25.25;19.75;;;;;4.19;70.91;101825.47;5062100;28;46640;-57
2022/01/06 05:57:09;;;;;;;;;23.25;20.00;;;;;4.18;70.32;101831.53;5063137;28;45238;-57
2022/01/06 05:59:35;;;;;;;;;25.00;19.50;;;;;4.15;70.40;101829.00;5062228;28;45396;-57
2022/01/06 06:02:01;;;;;;;;;27.00;19.50;;;;;4.15;70.49;101838.56;5061770;28;45485;-57
2022/01/06 06:04:28;;;;;;;;;24.50;20.50;;;;;4.12;70.06;101843.84;5061798;28;45322;-57
2022/01/06 06:06:53;;;;;;;;;24.75;19.50;;;;;4.09;70.60;101849.09;5061985;28;45247;-57
2022/01/06 06:09:19;;;;;;;;;33.25;24.50;;;;;4.09;71.05;101849.94;5062076;28;45383;-57
2022/01/06 06:11:44;;;;;;;;;33.00;28.25;;;;;4.12;70.82;101857.75;5061540;28;45459;-57
2022/01/06 06:14:10;;;;;;;;;48.25;29.75;;;;;4.14;70.81;101862.94;5061895;28;46004;-57
2022/01/06 06:16:35;;;;;;;;;23.00;20.00;;;;;4.16;70.86;101859.41;5079102;28;45410;-57
2022/01/06 06:19:01;;;;;;;;;30.25;20.50;;;;;4.22;70.81;101862.81;5081693;28;45332;-57
2022/01/06 06:21:26;;;;;;;;;40.50;32.25;;;;;4.25;71.04;101861.00;5062007;28;45390;-56
2022/01/06 06:23:52;;;;;;;;;33.75;29.25;;;;;4.30;70.74;101855.72;5067970;28;47327;-57
2022/01/06 06:26:17;;;;;;;;;36.00;28.25;;;;;4.32;70.04;101857.41;5061351;28;45448;-57
2022/01/06 06:28:43;;;;;;;;;31.50;27.00;;;;;4.34;69.82;101860.84;5068788;28;45670;-57
2022/01/06 06:31:08;;;;;;;;;35.50;26.00;;;;;4.37;70.78;101862.56;5065023;28;45648;-57
2022/01/06 06:33:34;;;;;;;;;36.50;28.50;;;;;4.40;70.92;101868.59;5060957;28;46226;-57
2022/01/06 06:35:59;;;;;;;;;31.75;27.00;;;;;4.43;70.72;101872.94;5064000;28;45407;-57
2022/01/06 06:38:25;;;;;;;;;32.25;25.00;;;;;4.46;70.34;101870.25;5061902;28;45303;-55
2022/01/06 06:40:50;;;;;;;;;34.50;29.75;;;;;4.49;70.29;101875.41;5061399;28;45386;-55
2022/01/06 06:43:16;;;;;;;;;22.75;16.00;;;;;4.51;70.10;101878.88;5061361;28;45292;-55
2022/01/06 06:45:42;;;;;;;;;25.75;21.00;;;;;4.51;69.96;101876.28;5060871;28;45365;-55
2022/01/06 06:48:09;;;;;;;;;27.00;20.00;;;;;4.55;70.37;101879.69;5061306;28;45297;-56
2022/01/06 06:50:34;;;;;;;;;28.75;19.25;;;;;4.59;70.29;101871.78;5061173;28;45218;-55
2022/01/06 06:53:02;;;;;;;;;19.75;19.75;;;;;4.61;70.11;101879.59;5061256;28;45242;-54
2022/01/06 06:55:28;;;;;;;;;14.25;13.50;;;;;4.61;69.95;101877.84;5061531;28;45457;-54
2022/01/06 06:57:53;;;;;;;;;22.75;19.75;;;;;4.66;70.46;101885.56;5061398;28;45321;-54
2022/01/06 07:00:18;;;;;;;;;17.00;15.75;;;;;4.72;70.16;101880.25;5077627;28;45308;-55
2022/01/06 07:02:44;;;;;;;;;21.25;17.25;;;;;4.74;69.55;101884.59;5069972;27;45387;-54
2022/01/06 07:05:10;;;;;;;;;22.75;16.50;;;;;4.77;69.99;101888.88;5060558;28;45365;-54
2022/01/06 07:07:35;;;;;;;;;23.50;17.75;;;;;4.76;69.66;101889.78;5061081;28;45420;-54
2022/01/06 07:10:03;;;;;;;;;23.25;17.25;;;;;4.76;69.77;101888.03;5061123;28;45407;-55
2022/01/06 07:12:30;;;;;;;;;21.25;16.75;;;;;4.80;69.69;101894.03;5060559;28;46725;-55
2022/01/06 07:14:56;;;;;;;;;28.00;20.25;;;;;4.81;69.88;101894.91;5065189;28;45369;-55
2022/01/06 07:17:22;;;;;;;;;16.50;15.75;;;;;4.82;69.89;101896.63;5081360;28;45335;-55
2022/01/06 07:19:47;;;;;;;;;23.25;14.25;;;;;4.82;69.12;101891.41;5081090;28;45484;-55
2022/01/06 07:22:13;;;;;;;;;21.25;18.00;;;;;4.86;69.19;101898.31;5081009;28;45260;-55
2022/01/06 07:24:39;;;;;;;;;22.50;16.00;;;;;4.86;69.54;101893.09;5080875;28;45632;-55
2022/01/06 07:27:04;;;;;;;;;21.00;16.50;;;;;4.87;69.31;101894.81;5080676;28;45474;-54
2022/01/06 07:29:30;;;;;;;;;23.75;19.50;;;;;4.87;68.57;101894.81;5061872;27;45438;-55
2022/01/06 07:31:55;;;;;;;;;16.50;16.25;;;;;4.86;68.71;101899.16;5060360;28;46136;-56
2022/01/06 07:34:21;;;;;;;;;19.75;17.00;;;;;4.88;69.29;101896.53;5060481;28;45295;-55
2022/01/06 07:36:47;;;;;;;;;23.25;17.25;;;;;4.89;69.45;101895.63;5060810;28;45457;-55
2022/01/06 07:39:12;;;;;;;;;28.00;21.25;;;;;4.89;69.18;101895.63;5060651;28;45291;-55
2022/01/06 07:41:38;;;;;;;;;21.25;19.50;;;;;4.91;68.75;101901.72;5060518;28;45352;-55
2022/01/06 07:44:07;;;;;;;;;22.75;20.25;;;;;4.93;68.58;101911.22;5060247;28;45421;-55
2022/01/06 07:46:34;;;;;;;;;26.25;19.50;;;;;4.97;69.53;101897.22;5060817;28;45249;-55
2022/01/06 07:48:59;;;;;;;;;32.25;20.75;;;;;5.02;69.70;101910.22;5060017;28;45302;-55
2022/01/06 07:51:29;;;;;;;;;32.00;21.00;;;;;5.06;68.52;101911.91;5060354;28;45335;-55
2022/01/06 07:53:56;;;;;;;;;35.00;25.50;;;;;5.07;68.63;101913.63;5060222;28;45231;-56
2022/01/06 07:56:22;;;;;;;;;35.50;24.00;;;;;5.10;69.14;101913.56;5060740;28;45304;-55
2022/01/06 07:58:48;;;;;;;;;25.75;22.00;;;;;5.11;68.24;101915.25;5060471;28;45339;-55
2022/01/06 08:01:15;;;;;;;;;30.00;22.50;;;;;5.10;68.76;101918.78;5060137;28;46458;-56
2022/01/06 08:03:41;;;;;;;;;30.50;21.50;;;;;5.13;68.68;101917.84;5059747;28;45299;-56
2022/01/06 08:06:08;;;;;;;;;22.25;19.25;;;;;5.14;68.37;101914.38;5059043;27;45433;-56
2022/01/06 08:08:34;;;;;;;;;21.25;16.50;;;;;5.14;68.71;101911.75;5070804;27;46462;-56
2022/01/06 08:10:59;;;;;;;;;28.25;22.50;;;;;5.16;69.04;101908.22;5069691;28;46068;-56
2022/01/06 08:13:25;;;;;;;;;23.25;19.00;;;;;5.18;69.03;101911.66;5070320;28;45408;-57
2022/01/06 08:15:51;;;;;;;;;28.50;24.75;;;;;5.21;68.69;101915.97;5070747;28;45527;-55
2022/01/06 08:18:16;;;;;;;;;29.50;20.75;;;;;5.21;69.15;101914.22;5074597;28;45379;-57
2022/01/06 08:20:42;;;;;;;;;29.75;20.50;;;;;5.23;68.19;101919.44;5068675;28;45445;-58
2022/01/06 08:23:07;;;;;;;;;28.00;21.25;;;;;5.24;67.85;101924.63;5069844;28;45499;-56
2022/01/06 08:25:34;;;;;;;;;28.00;23.25;;;;;5.26;68.71;101914.13;5069599;28;45501;-54
2022/01/06 08:27:59;;;;;;;;;27.00;22.00;;;;;5.27;68.14;101921.06;5067935;28;45544;-55
2022/01/06 08:30:25;;;;;;;;;30.75;25.75;;;;;5.27;68.11;101929.78;5068414;28;45621;-56
2022/01/06 08:32:52;;;;;;;;;38.00;24.25;;;;;5.29;68.73;101932.34;5070677;28;45499;-56
2022/01/06 08:35:18;;;;;;;;;33.00;24.50;;;;;5.32;68.78;101933.19;5067216;28;45533;-56
2022/01/06 08:37:44;;;;;;;;;30.75;23.00;;;;;5.38;67.86;101933.97;5069010;28;45516;-56
2022/01/06 08:40:10;;;;;;;;;29.50;21.25;;;;;5.42;68.54;101930.38;5068524;28;45322;-57
2022/01/06 08:42:36;;;;;;;;;35.00;24.25;;;;;5.46;67.72;101930.31;5075331;28;45321;-50
2022/01/06 08:45:03;;;;;;;;;28.00;24.75;;;;;5.49;67.78;101922.41;5071005;28;45236;-57
2022/01/06 08:47:29;;;;;;;;;32.75;25.75;;;;;5.53;68.29;101929.31;5071844;28;45303;-56
2022/01/06 08:49:55;;;;;;;;;30.50;23.00;;;;;5.56;68.13;101938.84;5069659;28;45416;-53
2022/01/06 08:52:22;;;;;;;;;30.00;25.25;;;;;5.63;67.95;101937.81;5071367;28;45403;-56
2022/01/06 08:54:48;;;;;;;;;33.25;27.25;;;;;5.67;67.97;101938.59;5068734;28;45345;-57
2022/01/06 08:57:13;;;;;;;;;36.25;25.00;;;;;5.71;67.57;101932.44;5079295;27;45430;-56
2022/01/06 08:59:39;;;;;;;;;32.75;25.25;;;;;5.75;68.14;101932.34;5071770;28;46185;-55
2022/01/06 09:02:04;;;;;;;;;27.50;24.00;;;;;5.81;67.71;101937.44;5073048;28;45351;-56
2022/01/06 09:04:30;;;;;;;;;27.25;21.50;;;;;5.83;68.09;101937.41;5073197;28;45404;-56
2022/01/06 09:06:55;;;;;;;;;29.25;24.75;;;;;5.84;67.69;101941.75;5069236;27;45613;-56
2022/01/06 09:09:21;;;;;;;;;26.25;24.25;;;;;5.88;67.06;101941.66;5071986;27;46154;-56
2022/01/06 09:11:47;;;;;;;;;32.50;25.50;;;;;5.91;67.23;101938.16;5071941;28;45455;-54
2022/01/06 09:14:13;;;;;;;;;24.25;18.75;;;;;5.93;67.31;101933.78;5073023;28;45265;-56
2022/01/06 09:16:39;;;;;;;;;27.50;21.50;;;;;5.99;67.07;101945.84;5068983;27;45596;-56
2022/01/06 09:19:05;;;;;;;;;40.75;27.25;;;;;5.97;66.96;101937.16;5074462;27;45528;-55
2022/01/06 09:21:31;;;;;;;;;37.75;28.50;;;;;6.02;67.24;101953.63;5069488;27;45259;-56
2022/01/06 09:23:59;;;;;;;;;38.75;26.00;;;;;6.04;67.91;101946.63;5068124;27;46477;-48
2022/01/06 09:26:25;;;;;;;;;40.00;26.25;;;;;6.10;67.89;101942.13;5053804;27;49426;-54
2022/01/06 09:28:51;;;;;;;;;41.25;26.75;;;;;6.12;66.74;101939.47;5071230;28;47919;-54
2022/01/06 09:31:17;;;;;;;;;40.75;32.00;;;;;6.14;66.95;101937.66;5071914;28;45242;-54
2022/01/06 09:33:44;;;;;;;;;41.75;31.25;;;;;6.18;66.67;101954.16;5073098;28;45373;-59
2022/01/06 09:36:10;;;;;;;;;35.75;29.75;;;;;6.21;66.87;101952.34;5067457;28;45363;-59
2022/01/06 09:38:35;;;;;;;;;32.00;24.50;;;;;6.23;66.83;101953.16;5077745;28;46501;-58
2022/01/06 09:41:05;;;;;;;;;36.25;29.00;;;;;6.25;67.16;101961.84;5071136;28;45366;-58
2022/01/06 09:43:32;;;;;;;;;46.00;33.25;;;;;6.30;67.30;101959.13;5073697;28;45435;-60
2022/01/06 09:46:02;;;;;;;;;34.75;30.25;;;;;6.37;67.08;101958.94;5069672;28;45314;-58
2022/01/06 09:48:29;;;;;;;;;37.50;29.75;;;;;6.44;66.84;101965.78;5070341;28;46301;-57
2022/01/06 09:50:56;;;;;;;;;41.50;29.25;;;;;6.51;66.55;101963.03;5068696;28;45329;-56
2022/01/06 09:53:23;;;;;;;;;16.00;5.00;;;;;6.59;67.07;101967.19;5076568;27;45232;-58
2022/01/06 09:55:49;;;;;;;;;34.00;26.00;;;;;6.66;66.75;101963.53;5072685;27;45584;-58
2022/01/06 09:58:22;;;;;;;;;27.75;24.00;;;;;6.73;65.92;101972.13;5071644;27;45978;-58
2022/01/06 10:00:47;;;;;;;;;31.75;25.50;;;;;6.81;66.28;101974.56;5071469;27;45311;-58
2022/01/06 10:03:13;;;;;;;;;33.50;28.00;;;;;6.85;65.78;101978.81;5072564;27;45385;-58
2022/01/06 10:05:41;;;;;;;;;31.50;27.25;;;;;6.86;65.95;101978.75;5052916;27;46243;-58
2022/01/06 10:08:08;;;;;;;;;31.00;26.50;;;;;6.90;65.47;101984.81;5072547;28;45599;-58
2022/01/06 10:10:34;;;;;;;;;32.50;24.00;;;;;6.93;65.38;101982.97;5081911;27;45378;-58
2022/01/06 10:13:06;;;;;;;;;25.75;23.00;;;;;6.95;65.16;101968.09;5082218;28;45234;-58
2022/01/06 10:15:31;;;;;;;;;28.50;26.00;;;;;7.04;65.11;101966.13;5069843;28;45632;-58
2022/01/06 10:17:57;;;;;;;;;39.75;30.50;;;;;7.10;65.21;101979.06;5071891;27;45355;-58
2022/01/06 10:20:27;;;;;;;;;23.00;19.25;;;;;7.15;64.76;101970.19;5081781;28;45477;-58
2022/01/06 10:22:57;;;;;;;;;32.50;25.50;;;;;7.22;65.00;101981.38;5082204;28;45464;-58
2022/01/06 10:25:26;;;;;;;;;30.00;23.50;;;;;7.24;64.89;101979.56;5073956;28;45357;-57
2022/01/06 10:27:56;;;;;;;;;34.50;27.00;;;;;7.22;64.49;101974.38;5061657;28;45347;-57
2022/01/06 10:30:25;;;;;;;;;41.00;27.75;;;;;7.23;64.35;101973.47;5061267;28;45521;-58
2022/01/06 10:32:51;;;;;;;;;37.00;30.25;;;;;7.27;64.67;101971.66;5061848;28;45205;-59
2022/01/06 10:35:18;;;;;;;;;33.75;27.25;;;;;7.33;64.30;101981.97;5061129;28;45574;-59
2022/01/06 10:37:47;;;;;;;;;40.75;28.00;;;;;7.35;64.11;101974.94;5061468;28;45459;-58
2022/01/06 10:40:27;;;;;;;;;41.00;31.25;;;;;7.36;64.18;101976.66;5061369;28;45302;-58
2022/01/06 10:42:55;;;;;;;;;51.50;39.50;;;;;7.40;64.34;101982.66;5061455;28;45291;-58
2022/01/06 10:45:25;;;;;;;;;36.50;32.50;;;;;7.43;63.99;101975.59;5061265;28;45427;-58
2022/01/06 10:47:55;;;;;;;;;39.00;32.25;;;;;7.48;63.89;101957.97;5060570;28;45519;-58
2022/01/06 10:50:23;;;;;;;;;43.25;36.50;;;;;7.53;63.53;101966.56;5060933;28;45393;-59
2022/01/06 10:52:50;;;;;;;;;37.75;30.25;;;;;7.55;63.55;101967.38;5060996;28;45242;-60
2022/01/06 10:55:23;;;;;;;;;41.50;30.50;;;;;7.57;63.41;101970.81;5064548;28;45500;-58
2022/01/06 10:58:09;;;;;;;;;38.00;32.50;;;;;7.57;63.16;101962.97;5063862;27;45519;-57
2022/01/06 11:00:48;;;;;;;;;46.75;32.75;;;;;7.54;63.70;101959.56;5061082;28;45279;-47
2022/01/06 11:03:19;;;;;;;;;40.50;28.00;;;;;7.62;64.49;101951.50;5069630;27;46447;-49
2022/01/06 11:05:52;;;;;;;;;50.50;32.00;;;;;7.72;65.88;101956.44;5079162;27;45545;-48
2022/01/06 11:08:21;;;;;;;;;32.00;28.75;;;;;7.82;63.65;101941.31;5079890;27;47123;-45
2022/01/06 11:11:13;;;;;;;;;28.50;22.75;;;;;7.82;63.27;101942.19;5078159;27;45586;-60
2022/01/06 11:13:39;;;;;;;;;24.25;22.25;;;;;7.83;63.04;101928.16;5068272;28;45337;-59
2022/01/06 11:16:06;;;;;;;;;28.00;21.25;;;;;7.80;62.66;101929.97;5077562;27;45590;-59
2022/01/06 11:18:32;;;;;;;;;28.75;20.50;;;;;7.74;62.93;101928.41;5084997;27;45246;-59
2022/01/06 11:21:09;;;;;;;;;27.75;21.00;;;;;7.74;62.81;101932.78;5072907;27;45405;-46
2022/01/06 11:23:36;;;;;;;;;21.50;17.75;;;;;7.76;63.25;101934.47;5079288;28;45790;-46